Time;durP1;ratioP1;P1;durP2;ratioP2;P2;SDS_P1;SDS_P2;PMS_P1;PMS_P2;Temp;Humidity;BMP_temperature;BMP_pressure;BME280_temperature;BME280_humidity;BME280_pressure;Samples;Min_cycle;Max_cycle;Signal;HPM_P1;HPM_P2
2023/10/14 00:01:13;;;;;;;6.25;1.60;;;19.70;99.90;;;;;;6289439;22;20019;-80
2023/10/14 00:03:49;;;;;;;8.80;2.15;;;19.60;99.90;;;;;;6263512;22;20026;-79
2023/10/14 00:06:17;;;;;;;7.18;1.20;;;20.20;99.90;;;;;;6263440;22;20045;-78
2023/10/14 00:08:57;;;;;;;10.52;1.70;;;20.10;99.90;;;;;;6263185;22;20011;-78
2023/10/14 00:11:35;;;;;;;7.00;1.35;;;19.70;99.90;;;;;;6263787;22;20008;-79
2023/10/14 00:14:15;;;;;;;6.00;1.40;;;19.60;99.90;;;;;;6263157;22;20197;-83
2023/10/14 00:16:49;;;;;;;5.65;1.73;;;19.40;99.90;;;;;;6263385;22;20026;-83
2023/10/14 00:19:18;;;;;;;6.55;1.92;;;19.20;99.90;;;;;;6263890;22;20034;-79
2023/10/14 00:21:45;;;;;;;4.85;1.20;;;19.60;99.90;;;;;;6263142;22;20015;-82
2023/10/14 00:24:16;;;;;;;6.22;1.40;;;19.70;99.90;;;;;;6263352;22;20018;-81
2023/10/14 00:26:47;;;;;;;7.95;1.58;;;19.60;99.90;;;;;;6238685;22;20039;-83
2023/10/14 00:31:43;;;;;;;7.35;2.08;;;19.60;99.90;;;;;;6288461;22;20027;-78
2023/10/14 00:34:09;;;;;;;3.97;1.33;;;18.90;99.90;;;;;;6237944;22;20088;-78
2023/10/14 00:36:35;;;;;;;6.45;1.83;;;18.90;99.90;;;;;;6288863;22;20274;-81
2023/10/14 00:39:12;;;;;;;7.90;1.60;;;19.40;99.90;;;;;;6289127;22;20007;-83
2023/10/14 00:41:42;;;;;;;7.75;1.38;;;19.40;99.90;;;;;;6263210;22;20070;-82
2023/10/14 00:44:09;;;;;;;11.52;1.70;;;19.10;99.90;;;;;;6263491;22;20046;-80
2023/10/14 00:46:36;;;;;;;8.10;1.67;;;18.90;99.90;;;;;;6288479;22;20019;-84
2023/10/14 00:49:05;;;;;;;7.68;1.48;;;18.70;99.90;;;;;;6288692;22;20007;-79
2023/10/14 00:51:33;;;;;;;7.60;2.28;;;19.30;99.90;;;;;;6238976;22;20010;-77
2023/10/14 00:54:03;;;;;;;5.45;1.65;;;19.10;99.90;;;;;;6290603;22;20007;-77
2023/10/14 00:56:33;;;;;;;9.20;2.13;;;18.90;99.90;;;;;;6264765;22;20011;-76
2023/10/14 00:59:03;;;;;;;8.30;1.73;;;18.90;99.90;;;;;;6265061;22;20019;-78
2023/10/14 01:01:55;;;;;;;5.70;1.85;;;18.80;99.90;;;;;;6290335;22;20026;-75
2023/10/14 01:04:19;;;;;;;9.13;2.20;;;18.60;99.90;;;;;;6289900;22;20034;-78
2023/10/14 01:09:20;;;;;;;9.65;1.98;;;18.60;99.90;;;;;;6289938;22;20011;-75
2023/10/14 01:11:46;;;;;;;11.50;2.40;;;18.80;99.90;;;;;;6238977;22;20042;-77
2023/10/14 01:14:17;;;;;;;9.98;2.25;;;18.40;99.90;;;;;;6214674;22;20013;-78
2023/10/14 01:16:46;;;;;;;10.85;2.75;;;18.80;99.90;;;;;;6266513;22;20046;-78
2023/10/14 01:19:15;;;;;;;11.68;1.92;;;18.20;99.90;;;;;;6265291;22;20118;-81
2023/10/14 01:21:43;;;;;;;5.55;1.85;;;18.20;99.90;;;;;;6290685;22;20205;-79
2023/10/14 01:24:16;;;;;;;13.70;2.00;;;18.30;99.90;;;;;;6215368;22;20171;-78
2023/10/14 01:27:03;;;;;;;11.75;2.28;;;18.60;99.90;;;;;;6265505;22;20019;-78
2023/10/14 01:29:38;;;;;;;13.00;2.00;;;18.30;99.90;;;;;;6242829;22;20003;-77
2023/10/14 01:32:10;;;;;;;7.28;1.65;;;18.10;99.90;;;;;;6265220;22;20022;-80
2023/10/14 01:34:42;;;;;;;13.98;2.30;;;18.10;99.90;;;;;;6290841;22;20007;-78
2023/10/14 01:37:19;;;;;;;8.65;2.83;;;18.40;99.90;;;;;;6290534;22;20026;-79
2023/10/14 01:39:48;;;;;;;12.32;1.75;;;18.00;99.90;;;;;;6218457;22;20045;-80
2023/10/14 01:42:16;;;;;;;11.20;2.17;;;18.30;99.90;;;;;;6264894;22;20011;-78
2023/10/14 01:44:42;;;;;;;12.68;1.60;;;18.20;99.90;;;;;;6264779;22;20011;-78
2023/10/14 01:47:08;;;;;;;14.45;2.38;;;17.70;99.90;;;;;;6264513;22;20043;-81
2023/10/14 01:49:36;;;;;;;12.23;1.73;;;17.70;99.90;;;;;;6239130;22;20281;-78
2023/10/14 01:52:06;;;;;;;8.80;1.90;;;17.80;99.90;;;;;;6290323;22;20007;-79
2023/10/14 01:54:32;;;;;;;7.47;2.03;;;17.80;99.90;;;;;;6239987;22;20007;-79
2023/10/14 01:56:59;;;;;;;10.23;1.75;;;18.00;99.90;;;;;;6289746;22;20250;-77
2023/10/14 01:59:27;;;;;;;11.55;2.63;;;17.90;99.90;;;;;;6214474;22;20019;-79
2023/10/14 02:01:57;;;;;;;22.58;2.72;;;17.60;99.90;;;;;;6264725;22;20047;-79
2023/10/14 02:04:23;;;;;;;8.48;2.17;;;17.90;99.90;;;;;;6264060;22;20042;-80
2023/10/14 02:07:13;;;;;;;11.63;2.20;;;17.70;99.90;;;;;;6263956;22;20011;-78
2023/10/14 02:09:36;;;;;;;11.93;2.38;;;17.80;99.90;;;;;;6289741;22;20060;-79
2023/10/14 02:12:01;;;;;;;7.03;2.10;;;17.70;99.90;;;;;;6264585;22;20097;-78
2023/10/14 02:14:27;;;;;;;9.20;2.10;;;17.60;99.90;;;;;;6264280;22;20011;-80
2023/10/14 02:16:54;;;;;;;8.75;1.65;;;17.70;99.90;;;;;;6289698;22;20369;-79
2023/10/14 02:19:36;;;;;;;7.85;2.03;;;17.50;99.90;;;;;;6264498;22;20014;-77
2023/10/14 02:22:09;;;;;;;8.15;2.13;;;17.80;99.90;;;;;;6263986;22;20011;-79
2023/10/14 02:24:36;;;;;;;11.50;2.25;;;17.40;99.90;;;;;;6264924;22;20022;-82
2023/10/14 02:27:14;;;;;;;7.82;1.77;;;17.40;99.90;;;;;;6264134;22;20011;-79
2023/10/14 02:29:43;;;;;;;7.63;1.83;;;17.30;99.90;;;;;;6289376;22;20079;-80
2023/10/14 02:32:12;;;;;;;7.80;1.67;;;17.50;99.90;;;;;;6264255;22;20007;-77
2023/10/14 02:34:45;;;;;;;9.80;2.03;;;17.60;99.90;;;;;;6289349;22;20224;-79
2023/10/14 02:37:13;;;;;;;5.80;1.73;;;17.40;99.90;;;;;;6289682;22;20014;-78
2023/10/14 02:39:42;;;;;;;8.18;1.90;;;17.50;99.90;;;;;;6264556;22;20299;-80
2023/10/14 02:42:09;;;;;;;7.03;1.63;;;17.30;99.90;;;;;;6264216;22;20045;-78
2023/10/14 02:44:46;;;;;;;10.02;1.95;;;17.20;99.90;;;;;;6238593;22;20007;-77
2023/10/14 02:47:13;;;;;;;6.10;1.73;;;17.40;99.90;;;;;;6265401;22;20007;-79
2023/10/14 02:49:42;;;;;;;8.02;1.60;;;17.20;99.90;;;;;;6263435;22;20182;-82
2023/10/14 02:52:12;;;;;;;8.50;2.20;;;17.20;99.90;;;;;;6239902;22;20007;-80
2023/10/14 02:54:54;;;;;;;7.75;1.55;;;17.10;99.90;;;;;;6288755;22;20061;-78
2023/10/14 02:57:25;;;;;;;8.57;2.35;;;17.30;99.90;;;;;;6289442;22;20007;-79
2023/10/14 02:59:55;;;;;;;8.50;2.00;;;17.20;99.90;;;;;;6228647;23;20012;-79
2023/10/14 03:04:55;;;;;;;11.50;1.80;;;17.10;99.90;;;;;;6252864;23;20078;-82
2023/10/14 03:07:34;;;;;;;9.48;1.80;;;17.10;99.90;;;;;;6253643;23;20210;-79
2023/10/14 03:12:49;;;;;;;12.25;1.75;;;17.10;99.90;;;;;;6253391;23;20027;-81
2023/10/14 03:15:20;;;;;;;10.63;1.90;;;17.20;99.90;;;;;;6253518;23;20046;-77
2023/10/14 03:17:58;;;;;;;10.30;2.03;;;17.30;99.90;;;;;;6227919;23;20011;-78
2023/10/14 03:22:58;;;;;;;10.75;2.30;;;17.20;99.90;;;;;;6252981;23;20182;-77
2023/10/14 03:25:24;;;;;;;8.00;1.83;;;16.90;99.90;;;;;;6227694;23;20375;-80
2023/10/14 03:28:14;;;;;;;10.15;2.03;;;16.90;99.90;;;;;;6227678;23;20305;-77
2023/10/14 03:31:00;;;;;;;10.43;1.92;;;16.80;99.90;;;;;;6253182;23;20016;-79
2023/10/14 03:33:27;;;;;;;10.13;1.67;;;17.10;99.90;;;;;;6228002;23;20008;-77
2023/10/14 03:35:57;;;;;;;5.55;1.70;;;17.10;99.90;;;;;;6227812;23;20277;-78
2023/10/14 03:41:21;;;;;;;9.70;1.63;;;16.90;99.90;;;;;;6253025;23;20031;-78
2023/10/14 03:46:35;;;;;;;10.75;2.08;;;17.00;99.90;;;;;;6252690;23;19930;-78
2023/10/14 03:49:25;;;;;;;13.00;1.85;;;16.90;99.90;;;;;;6227271;23;20008;-79
2023/10/14 03:51:52;;;;;;;9.05;1.75;;;16.90;99.90;;;;;;6251584;23;20062;-77
2023/10/14 03:54:24;;;;;;;11.70;1.90;;;16.70;99.90;;;;;;6227633;23;20008;-76
2023/10/14 03:56:50;;;;;;;14.35;1.83;;;16.90;99.90;;;;;;6226657;23;20434;-78
2023/10/14 03:59:22;;;;;;;7.93;1.90;;;16.70;99.90;;;;;;6237902;22;20023;-79
2023/10/14 04:02:15;;;;;;;14.30;2.65;;;16.90;99.90;;;;;;6232583;22;20201;-81
2023/10/14 04:04:37;;;;;;;10.57;2.10;;;16.80;99.90;;;;;;6282008;22;20175;-80
2023/10/14 04:09:38;;;;;;;9.95;1.88;;;16.70;99.90;;;;;;6257496;22;20026;-80
2023/10/14 04:12:09;;;;;;;10.95;2.33;;;16.90;99.90;;;;;;6253505;22;20073;-77
2023/10/14 04:14:41;;;;;;;10.68;2.08;;;16.80;99.90;;;;;;6257656;22;20175;-78
2023/10/14 04:19:44;;;;;;;10.60;1.90;;;16.80;99.90;;;;;;6257726;22;20050;-77
2023/10/14 04:25:06;;;;;;;13.48;2.47;;;16.80;99.90;;;;;;6283575;22;20118;-79
2023/10/14 04:27:36;;;;;;;10.85;2.22;;;17.00;99.90;;;;;;6285100;22;20015;-76
2023/10/14 04:30:11;;;;;;;9.60;1.90;;;16.90;99.90;;;;;;6262665;22;20015;-77
2023/10/14 04:32:48;;;;;;;10.65;2.28;;;17.00;99.90;;;;;;6210521;22;20014;-79
2023/10/14 04:35:19;;;;;;;7.78;1.90;;;16.80;99.90;;;;;;6262593;22;20012;-79
2023/10/14 04:37:52;;;;;;;9.40;2.67;;;16.90;99.90;;;;;;6285756;22;20011;-78
2023/10/14 04:46:00;;;;;;;10.05;1.80;;;16.80;99.90;;;;;;6261699;22;20320;-78
2023/10/14 04:48:28;;;;;;;11.52;2.10;;;16.90;99.90;;;;;;6259789;22;20008;-76
2023/10/14 04:50:57;;;;;;;10.27;2.20;;;16.80;99.90;;;;;;6259708;22;20043;-77
2023/10/14 04:53:26;;;;;;;9.82;2.25;;;16.90;99.90;;;;;;6285338;22;20008;-77
2023/10/14 04:55:53;;;;;;;8.60;2.10;;;16.80;99.90;;;;;;6260804;22;20011;-82
2023/10/14 04:58:32;;;;;;;8.25;1.60;;;16.90;99.90;;;;;;6259892;22;20012;-84
2023/10/14 05:01:03;;;;;;;10.40;1.80;;;16.90;99.90;;;;;;6259741;22;20023;-78
2023/10/14 05:03:29;;;;;;;11.25;2.15;;;16.90;99.90;;;;;;6285536;22;20337;-78
2023/10/14 05:05:56;;;;;;;9.88;1.80;;;16.70;99.90;;;;;;6259304;22;20019;-80
2023/10/14 05:08:24;;;;;;;9.77;1.95;;;16.70;99.90;;;;;;6234407;22;20289;-77
2023/10/14 05:10:51;;;;;;;11.20;2.00;;;16.80;99.90;;;;;;6285282;22;20008;-76
2023/10/14 05:13:31;;;;;;;14.18;1.90;;;16.70;99.90;;;;;;6261840;22;20008;-79
2023/10/14 05:16:15;;;;;;;9.68;1.90;;;16.70;99.90;;;;;;6213538;22;20067;-79
2023/10/14 05:19:01;;;;;;;9.25;1.90;;;16.60;99.90;;;;;;6239202;22;20240;-78
2023/10/14 05:21:42;;;;;;;11.23;2.90;;;16.60;99.90;;;;;;6285669;22;20166;-80
2023/10/14 05:24:10;;;;;;;8.77;1.88;;;16.60;99.90;;;;;;6260428;22;20018;-80
2023/10/14 05:26:46;;;;;;;11.98;1.75;;;16.60;99.90;;;;;;6234238;22;20019;-79
2023/10/14 05:29:19;;;;;;;18.45;2.38;;;16.40;99.90;;;;;;6284998;22;20008;-81
2023/10/14 05:31:47;;;;;;;14.27;2.63;;;16.40;99.90;;;;;;6210895;22;20014;-78
2023/10/14 05:34:14;;;;;;;8.05;1.90;;;16.50;99.90;;;;;;6208583;22;20014;-78
2023/10/14 05:36:39;;;;;;;14.90;2.67;;;16.50;99.90;;;;;;6258949;22;20034;-81
2023/10/14 05:39:06;;;;;;;6.97;1.80;;;16.40;99.90;;;;;;6234116;22;20015;-79
2023/10/14 05:41:36;;;;;;;9.57;1.98;;;16.50;99.90;;;;;;6259580;22;20020;-76
2023/10/14 05:44:04;;;;;;;7.78;2.08;;;16.40;99.90;;;;;;6260266;22;20019;-75
2023/10/14 05:46:30;;;;;;;8.43;2.25;;;16.40;99.90;;;;;;6259200;22;20033;-75
2023/10/14 05:48:56;;;;;;;13.95;2.90;;;16.40;99.90;;;;;;6259394;22;20008;-81
2023/10/14 05:51:22;;;;;;;8.80;2.03;;;16.40;99.90;;;;;;6209956;22;20008;-77
2023/10/14 05:53:49;;;;;;;18.08;2.88;;;16.50;99.90;;;;;;6260085;22;20114;-78
2023/10/14 05:56:19;;;;;;;7.28;1.92;;;16.40;99.90;;;;;;6259180;22;20101;-77
2023/10/14 05:58:48;;;;;;;12.05;2.10;;;16.30;99.90;;;;;;6263387;22;20027;-78
2023/10/14 06:01:16;;;;;;;9.85;2.13;;;16.40;99.90;;;;;;6289573;22;20248;-79
2023/10/14 06:03:42;;;;;;;11.35;2.08;;;16.40;99.90;;;;;;6289273;22;20069;-78
2023/10/14 06:06:14;;;;;;;10.73;1.90;;;16.50;99.90;;;;;;6237973;22;20382;-81
2023/10/14 06:08:41;;;;;;;7.10;2.45;;;16.40;99.90;;;;;;6265109;22;20015;-76
2023/10/14 06:11:07;;;;;;;8.95;2.00;;;16.30;99.90;;;;;;6288927;22;20015;-77
2023/10/14 06:13:34;;;;;;;11.20;2.10;;;16.30;99.90;;;;;;6289526;22;20066;-79
2023/10/14 06:16:00;;;;;;;13.02;2.20;;;16.30;99.90;;;;;;6237721;22;20046;-77
2023/10/14 06:18:29;;;;;;;12.10;2.20;;;16.20;99.90;;;;;;6237872;22;20011;-78
2023/10/14 06:20:59;;;;;;;11.48;2.63;;;16.20;99.90;;;;;;6263134;22;20039;-78
2023/10/14 06:23:28;;;;;;;15.50;2.65;;;16.10;99.90;;;;;;6237840;22;20062;-81
2023/10/14 06:25:55;;;;;;;13.70;2.17;;;16.10;99.90;;;;;;6262713;22;20007;-77
2023/10/14 06:28:25;;;;;;;12.85;2.20;;;16.00;99.90;;;;;;6237424;22;20007;-77
2023/10/14 06:30:51;;;;;;;12.45;2.75;;;16.00;99.90;;;;;;6262091;22;20007;-79
2023/10/14 06:33:17;;;;;;;11.23;1.95;;;16.00;99.90;;;;;;6261516;22;20015;-65
2023/10/14 06:35:43;;;;;;;11.57;2.65;;;16.00;99.90;;;;;;6287067;22;20010;-78
2023/10/14 06:38:10;;;;;;;8.85;1.70;;;15.90;99.90;;;;;;6287491;22;20057;-78
2023/10/14 06:40:37;;;;;;;7.30;1.90;;;16.00;99.90;;;;;;6262522;22;20011;-79
2023/10/14 06:43:08;;;;;;;12.57;2.92;;;16.00;99.90;;;;;;6262390;22;20021;-78
2023/10/14 06:45:35;;;;;;;15.40;2.03;;;16.10;99.90;;;;;;6262694;22;20328;-79
2023/10/14 06:48:05;;;;;;;7.85;1.70;;;16.10;99.90;;;;;;6262747;22;20014;-82
2023/10/14 06:50:32;;;;;;;11.32;1.88;;;16.10;99.90;;;;;;6262046;22;20089;-78
2023/10/14 06:52:59;;;;;;;9.15;2.10;;;16.20;99.90;;;;;;6237307;22;20014;-78
2023/10/14 06:55:28;;;;;;;11.18;1.85;;;16.30;99.90;;;;;;6261999;22;20018;-80
2023/10/14 06:57:55;;;;;;;8.57;2.10;;;16.30;99.90;;;;;;6287544;22;20080;-77
2023/10/14 07:00:30;;;;;;;13.23;4.95;;;16.60;99.90;;;;;;6281773;22;20310;-78
2023/10/14 07:02:59;;;;;;;11.98;2.17;;;16.60;99.90;;;;;;6282132;22;20169;-82
2023/10/14 07:05:29;;;;;;;8.38;1.88;;;16.80;99.90;;;;;;6232042;22;20039;-78
2023/10/14 07:07:58;;;;;;;8.18;2.58;;;16.90;99.90;;;;;;6257012;22;20353;-78
2023/10/14 07:10:32;;;;;;;9.90;2.08;;;16.90;99.90;;;;;;6282643;22;20057;-69
2023/10/14 07:13:00;;;;;;;8.40;2.03;;;17.10;99.90;;;;;;6282267;22;20324;-79
2023/10/14 07:15:33;;;;;;;7.10;1.70;;;17.20;99.90;;;;;;6282394;22;20242;-79
2023/10/14 07:17:59;;;;;;;8.82;1.80;;;17.20;99.90;;;;;;6233023;22;20363;-79
2023/10/14 07:20:29;;;;;;;12.40;2.58;;;17.40;99.90;;;;;;6256778;22;20202;-79
2023/10/14 07:23:00;;;;;;;9.60;2.08;;;17.40;99.90;;;;;;6282339;22;20063;-78
2023/10/14 07:25:30;;;;;;;12.02;2.05;;;17.60;99.90;;;;;;6231616;22;20434;-78
2023/10/14 07:27:59;;;;;;;7.72;2.28;;;17.60;99.90;;;;;;6282491;22;20003;-79
2023/10/14 07:30:27;;;;;;;9.60;2.10;;;17.70;99.90;;;;;;6257112;22;20178;-80
2023/10/14 07:32:55;;;;;;;11.85;2.33;;;17.80;99.90;;;;;;6256745;22;20057;-80
2023/10/14 07:35:22;;;;;;;8.15;2.10;;;17.90;99.90;;;;;;6256604;22;20041;-78
2023/10/14 07:37:49;;;;;;;9.88;2.47;;;17.90;99.90;;;;;;6255666;22;20062;-80
2023/10/14 07:40:31;;;;;;;10.05;1.95;;;17.90;99.90;;;;;;6255899;22;20015;-79
2023/10/14 07:43:05;;;;;;;9.50;2.10;;;18.00;99.90;;;;;;6282586;22;20042;-78
2023/10/14 07:45:35;;;;;;;10.88;2.58;;;18.10;99.90;;;;;;6282232;22;20063;-78
2023/10/14 07:48:08;;;;;;;11.40;2.13;;;18.20;99.90;;;;;;6281901;22;20043;-79
2023/10/14 07:50:39;;;;;;;8.88;1.92;;;18.30;99.90;;;;;;6232332;22;20042;-79
2023/10/14 07:53:08;;;;;;;13.50;2.55;;;18.40;99.90;;;;;;6282079;22;20011;-78
2023/10/14 07:55:47;;;;;;;7.80;2.40;;;18.50;99.90;;;;;;6232582;22;20053;-79
2023/10/14 07:58:14;;;;;;;13.80;2.42;;;18.40;99.90;;;;;;6256760;22;20020;-79
2023/10/14 08:00:48;;;;;;;9.00;1.63;;;18.40;99.90;;;;;;6255663;22;20298;-78
2023/10/14 08:03:17;;;;;;;17.67;2.78;;;18.50;99.90;;;;;;6281923;22;20077;-77
2023/10/14 08:05:52;;;;;;;8.50;1.75;;;18.60;99.90;;;;;;6206983;22;20198;-78
2023/10/14 08:08:22;;;;;;;7.85;1.95;;;18.70;99.90;;;;;;6281135;22;20070;-79
2023/10/14 08:10:50;;;;;;;8.23;2.25;;;18.70;99.90;;;;;;6231927;22;20007;-78
2023/10/14 08:13:23;;;;;;;6.68;1.70;;;18.80;99.90;;;;;;6255918;22;20070;-78
2023/10/14 08:15:54;;;;;;;11.05;2.80;;;18.80;99.90;;;;;;6256737;22;20016;-79
2023/10/14 08:18:24;;;;;;;9.45;2.25;;;18.90;99.90;;;;;;6255815;22;20059;-78
2023/10/14 08:20:54;;;;;;;9.88;1.88;;;18.80;99.90;;;;;;6255838;22;20058;-79
2023/10/14 08:23:24;;;;;;;5.43;1.45;;;18.80;99.90;;;;;;6255858;22;20012;-78
2023/10/14 08:25:54;;;;;;;9.15;2.35;;;18.80;99.90;;;;;;6255927;22;20018;-79
2023/10/14 08:28:24;;;;;;;8.00;2.35;;;18.80;99.90;;;;;;6281462;22;20253;-79
2023/10/14 08:30:53;;;;;;;9.48;1.90;;;18.90;99.90;;;;;;6255908;22;20035;-78
2023/10/14 08:33:23;;;;;;;10.13;1.73;;;19.00;99.90;;;;;;6280713;22;20019;-77
2023/10/14 08:35:51;;;;;;;7.38;2.00;;;19.00;99.90;;;;;;6256315;22;20019;-79
2023/10/14 08:38:24;;;;;;;8.95;1.83;;;19.10;99.90;;;;;;6255823;22;20078;-78
2023/10/14 08:40:54;;;;;;;8.57;1.70;;;19.00;99.90;;;;;;6231408;22;20070;-79
2023/10/14 08:43:26;;;;;;;8.77;2.00;;;19.10;99.90;;;;;;6230799;22;20020;-78
2023/10/14 08:45:53;;;;;;;10.65;2.42;;;19.10;99.90;;;;;;6232116;22;20019;-78
2023/10/14 08:48:24;;;;;;;8.65;2.20;;;19.10;99.90;;;;;;6281354;22;20016;-79
2023/10/14 08:50:55;;;;;;;7.57;1.73;;;19.20;99.90;;;;;;6281814;22;20015;-78
2023/10/14 08:53:22;;;;;;;11.15;1.65;;;19.20;99.90;;;;;;6280061;22;20051;-77
2023/10/14 08:55:48;;;;;;;7.40;2.00;;;19.30;99.90;;;;;;6205316;22;20018;-78
2023/10/14 08:58:23;;;;;;;9.43;2.72;;;19.20;99.90;;;;;;6278334;22;20019;-78
2023/10/14 09:00:51;;;;;;;9.77;2.20;;;19.40;99.90;;;;;;6280993;22;20248;-78
2023/10/14 09:03:17;;;;;;;5.10;1.52;;;19.40;99.90;;;;;;6256317;22;20026;-78
2023/10/14 09:05:46;;;;;;;8.13;1.23;;;19.40;99.90;;;;;;6281423;22;20012;-78
2023/10/14 09:08:15;;;;;;;9.35;1.98;;;19.50;99.90;;;;;;6281532;22;20366;-78
2023/10/14 09:10:42;;;;;;;6.00;1.65;;;19.50;99.90;;;;;;6256372;22;20030;-77
2023/10/14 09:13:09;;;;;;;5.55;1.35;;;19.50;99.90;;;;;;6257624;22;20007;-78
2023/10/14 09:15:40;;;;;;;4.88;1.40;;;19.50;99.90;;;;;;6283277;22;20014;-77
2023/10/14 09:18:19;;;;;;;10.15;1.92;;;19.60;99.90;;;;;;6283748;22;20197;-76
2023/10/14 09:20:51;;;;;;;6.25;1.52;;;19.70;99.90;;;;;;6257746;22;20012;-75
2023/10/14 09:23:44;;;;;;;5.30;2.15;;;19.70;99.90;;;;;;6257664;22;20019;-75
2023/10/14 09:26:09;;;;;;;8.07;1.80;;;19.60;99.90;;;;;;6256812;22;20039;-76
2023/10/14 09:28:40;;;;;;;7.70;1.98;;;19.80;99.90;;;;;;6282407;22;20011;-77
2023/10/14 09:31:08;;;;;;;8.27;1.75;;;19.80;99.90;;;;;;6257726;22;20067;-78
2023/10/14 09:33:37;;;;;;;5.32;1.90;;;18.90;99.90;;;;;;6283274;22;20014;-77
2023/10/14 09:36:06;;;;;;;5.38;1.38;;;18.30;99.90;;;;;;6283317;22;20026;-78
2023/10/14 09:38:33;;;;;;;7.00;1.55;;;18.10;99.90;;;;;;6282833;22;20012;-77
2023/10/14 09:41:04;;;;;;;8.80;1.73;;;18.00;99.90;;;;;;6258096;22;20023;-76
2023/10/14 09:43:32;;;;;;;6.40;1.45;;;17.80;99.90;;;;;;6283130;22;20012;-76
2023/10/14 09:45:59;;;;;;;7.47;1.88;;;17.70;99.90;;;;;;6257747;22;20290;-76
2023/10/14 09:48:27;;;;;;;6.70;1.38;;;17.70;99.90;;;;;;6282959;22;20062;-76
2023/10/14 09:51:00;;;;;;;10.05;1.80;;;18.00;99.90;;;;;;6257223;22;20007;-76
2023/10/14 09:53:32;;;;;;;8.70;2.17;;;18.10;99.90;;;;;;6258318;22;20007;-76
2023/10/14 09:56:04;;;;;;;11.00;2.15;;;18.30;99.90;;;;;;6257802;22;20159;-76
2023/10/14 09:58:31;;;;;;;14.25;2.20;;;18.60;99.90;;;;;;6283307;22;20011;-76
2023/10/14 10:01:04;;;;;;;9.55;1.92;;;18.80;99.90;;;;;;6283039;22;20138;-77
2023/10/14 10:03:39;;;;;;;10.32;1.73;;;18.80;99.90;;;;;;6257560;22;20019;-76
2023/10/14 10:06:35;;;;;;;7.50;1.50;;;18.90;99.90;;;;;;6257302;22;20011;-76
2023/10/14 10:09:23;;;;;;;8.30;2.35;;;19.20;99.90;;;;;;6257686;22;20066;-76
2023/10/14 10:11:51;;;;;;;10.90;1.73;;;19.50;99.90;;;;;;6283347;22;20008;-76
2023/10/14 10:14:20;;;;;;;7.90;1.85;;;19.40;99.90;;;;;;6283128;22;20008;-77
2023/10/14 10:16:56;;;;;;;5.07;1.15;;;19.10;99.90;;;;;;6282449;22;20043;-77
2023/10/14 10:19:22;;;;;;;5.00;1.20;;;18.70;99.90;;;;;;6257385;22;20012;-77
2023/10/14 10:22:20;;;;;;;5.40;1.20;;;18.60;99.90;;;;;;6206941;22;20015;-77
2023/10/14 10:24:47;;;;;;;5.65;1.23;;;18.40;99.90;;;;;;6198906;22;20011;-77
2023/10/14 10:27:14;;;;;;;8.50;1.48;;;18.30;99.90;;;;;;6255979;22;20012;-77
2023/10/14 10:29:58;;;;;;;5.97;1.10;;;18.20;99.90;;;;;;6256603;22;20050;-77
2023/10/14 10:32:30;;;;;;;10.90;1.50;;;18.40;99.90;;;;;;6256769;22;20008;-77
2023/10/14 10:35:05;;;;;;;4.15;1.50;;;18.60;99.90;;;;;;6282271;22;20046;-77
2023/10/14 10:37:55;;;;;;;6.57;2.03;;;18.80;99.90;;;;;;6255681;22;20066;-77
2023/10/14 10:40:28;;;;;;;6.63;1.75;;;19.00;99.90;;;;;;6237619;22;20063;-77
2023/10/14 10:42:56;;;;;;;11.80;1.83;;;19.10;99.90;;;;;;6281601;22;20014;-77
2023/10/14 10:45:26;;;;;;;8.20;1.27;;;19.10;99.90;;;;;;6255633;22;20089;-76
2023/10/14 10:48:14;;;;;;;7.00;1.60;;;19.10;99.90;;;;;;6255981;22;20007;-76
2023/10/14 10:50:41;;;;;;;6.05;1.23;;;19.10;99.90;;;;;;6256860;22;20015;-77
2023/10/14 10:53:07;;;;;;;8.98;1.75;;;19.10;99.90;;;;;;6281726;22;20043;-76
2023/10/14 10:55:40;;;;;;;5.85;1.50;;;19.20;99.90;;;;;;6256239;22;20012;-76
2023/10/14 10:58:09;;;;;;;10.05;2.50;;;19.20;99.90;;;;;;6281729;22;20322;-76
2023/10/14 11:00:35;;;;;;;3.83;1.30;;;19.30;99.90;;;;;;6256125;22;20019;-76
2023/10/14 11:03:02;;;;;;;4.65;1.27;;;19.40;99.90;;;;;;6257375;22;20492;-76
2023/10/14 11:05:29;;;;;;;7.20;1.75;;;19.60;99.90;;;;;;6281905;22;20086;-76
2023/10/14 11:07:56;;;;;;;7.78;1.52;;;19.90;99.90;;;;;;6256673;22;20220;-76
2023/10/14 11:10:23;;;;;;;7.05;1.70;;;20.00;99.90;;;;;;6256719;22;20317;-77
2023/10/14 11:12:49;;;;;;;9.02;1.60;;;19.50;99.90;;;;;;6231909;22;20069;-77
2023/10/14 11:15:20;;;;;;;8.38;1.73;;;19.00;99.90;;;;;;6256987;22;20201;-77
2023/10/14 11:17:50;;;;;;;9.23;1.85;;;18.70;99.90;;;;;;6257485;22;20053;-76
2023/10/14 11:20:15;;;;;;;7.47;1.80;;;18.60;99.90;;;;;;6232660;22;20014;-76
2023/10/14 11:22:43;;;;;;;8.40;1.80;;;18.40;99.90;;;;;;6256628;22;20044;-76
2023/10/14 11:25:10;;;;;;;8.48;2.15;;;18.30;99.90;;;;;;6255808;22;20027;-76
2023/10/14 11:27:36;;;;;;;9.73;2.35;;;18.50;99.90;;;;;;6255941;22;20069;-76
2023/10/14 11:30:06;;;;;;;8.25;2.50;;;18.60;99.90;;;;;;6282291;22;20019;-77
2023/10/14 11:32:31;;;;;;;10.23;2.25;;;18.80;99.90;;;;;;6282175;22;20043;-76
2023/10/14 11:34:58;;;;;;;9.30;2.20;;;19.00;99.90;;;;;;6256662;22;20210;-76
2023/10/14 11:37:26;;;;;;;6.50;1.88;;;19.10;99.90;;;;;;6257908;22;20011;-80
2023/10/14 11:39:53;;;;;;;8.15;1.65;;;18.40;99.90;;;;;;6283647;22;20023;-80
2023/10/14 11:42:19;;;;;;;5.80;1.40;;;18.00;99.90;;;;;;6232818;22;20014;-81
2023/10/14 11:44:50;;;;;;;8.10;1.95;;;18.00;99.90;;;;;;6257492;22;20011;-78
2023/10/14 11:47:17;;;;;;;7.30;1.63;;;17.90;99.90;;;;;;6233159;22;20081;-79
2023/10/14 11:49:46;;;;;;;4.95;1.48;;;17.90;99.90;;;;;;6282729;22;20062;-78
2023/10/14 11:52:12;;;;;;;8.02;1.77;;;17.80;99.90;;;;;;6256933;22;20008;-79
2023/10/14 11:54:41;;;;;;;6.45;1.80;;;17.70;99.90;;;;;;6205667;22;20042;-78
2023/10/14 11:57:07;;;;;;;10.55;2.08;;;17.70;99.90;;;;;;6231970;22;20012;-77
2023/10/14 11:59:33;;;;;;;12.57;2.28;;;17.80;99.90;;;;;;6261542;22;20244;-78
2023/10/14 12:01:59;;;;;;;13.57;2.22;;;17.80;99.90;;;;;;6262230;22;20027;-77
2023/10/14 12:04:25;;;;;;;8.40;2.03;;;18.00;99.90;;;;;;6261898;22;20068;-79
2023/10/14 12:06:50;;;;;;;11.25;2.05;;;18.20;99.90;;;;;;6236297;22;20069;-78
2023/10/14 12:09:19;;;;;;;11.45;2.47;;;18.40;99.90;;;;;;6261850;22;20178;-78
2023/10/14 12:11:45;;;;;;;10.43;2.30;;;18.40;99.90;;;;;;6286840;22;20007;-78
2023/10/14 12:14:12;;;;;;;10.77;2.50;;;18.30;99.90;;;;;;6261369;22;20049;-80
2023/10/14 12:16:40;;;;;;;10.27;1.80;;;18.10;99.90;;;;;;6235548;22;20042;-77
2023/10/14 12:19:06;;;;;;;9.93;1.92;;;17.90;99.90;;;;;;6261653;22;20296;-77
2023/10/14 12:21:31;;;;;;;9.15;3.28;;;18.00;99.90;;;;;;6260982;22;20011;-78
2023/10/14 12:24:01;;;;;;;7.38;2.83;;;18.10;99.90;;;;;;6260807;22;20015;-78
2023/10/14 12:26:30;;;;;;;13.65;3.35;;;18.10;99.90;;;;;;6236958;22;20039;-78
2023/10/14 12:28:56;;;;;;;8.55;2.88;;;18.20;99.90;;;;;;6286534;22;20014;-77
2023/10/14 12:31:25;;;;;;;7.85;2.20;;;18.20;99.90;;;;;;6285930;22;20016;-78
2023/10/14 12:33:50;;;;;;;8.65;3.20;;;18.30;99.90;;;;;;6235481;22;20003;-79
2023/10/14 12:36:17;;;;;;;11.98;3.63;;;18.30;99.90;;;;;;6235300;22;20065;-78
2023/10/14 12:38:43;;;;;;;10.25;2.60;;;18.30;99.90;;;;;;6260320;22;20086;-77
2023/10/14 12:41:21;;;;;;;10.23;3.13;;;18.30;99.90;;;;;;6260736;22;20019;-78
2023/10/14 12:44:00;;;;;;;5.60;1.90;;;18.30;99.90;;;;;;6237853;22;20019;-76
2023/10/14 12:46:33;;;;;;;8.52;2.53;;;18.30;99.90;;;;;;6286140;22;20183;-76
2023/10/14 12:49:02;;;;;;;7.43;1.58;;;18.30;99.90;;;;;;6262746;22;20073;-76
2023/10/14 12:51:31;;;;;;;6.93;1.77;;;18.40;99.90;;;;;;6262977;22;20442;-76
2023/10/14 12:53:57;;;;;;;6.40;3.50;;;18.30;99.90;;;;;;6262754;22;20079;-77
2023/10/14 12:56:26;;;;;;;4.60;1.80;;;18.40;99.90;;;;;;6262961;22;20011;-77
2023/10/14 12:58:53;;;;;;;6.13;2.25;;;18.40;99.90;;;;;;6287380;22;20216;-77
2023/10/14 13:01:20;;;;;;;9.27;2.25;;;18.40;99.90;;;;;;6256855;22;20039;-77
2023/10/14 13:03:53;;;;;;;7.80;2.42;;;18.40;99.90;;;;;;6230821;22;20325;-77
2023/10/14 13:06:23;;;;;;;7.45;2.28;;;18.40;99.90;;;;;;6282058;22;20324;-76
2023/10/14 13:08:51;;;;;;;9.48;3.03;;;18.30;99.90;;;;;;6256382;22;20016;-77
2023/10/14 13:11:17;;;;;;;6.25;2.58;;;18.30;99.90;;;;;;6282122;22;20027;-77
2023/10/14 13:13:50;;;;;;;10.65;3.03;;;18.40;99.90;;;;;;6281589;22;20016;-78
2023/10/14 13:16:25;;;;;;;7.40;3.10;;;18.30;99.90;;;;;;6282286;22;20019;-77
2023/10/14 13:18:53;;;;;;;14.88;3.67;;;18.30;99.90;;;;;;6281488;22;20045;-77
2023/10/14 13:21:21;;;;;;;10.77;2.33;;;18.20;99.90;;;;;;6282753;22;20046;-78
2023/10/14 13:23:47;;;;;;;6.80;2.72;;;18.10;99.90;;;;;;6257454;22;20033;-78
2023/10/14 13:26:17;;;;;;;9.63;2.38;;;18.10;99.90;;;;;;6283092;22;20189;-77
2023/10/14 13:28:49;;;;;;;9.40;2.80;;;18.10;99.90;;;;;;6257354;22;20008;-77
2023/10/14 13:31:15;;;;;;;7.63;2.28;;;18.10;99.90;;;;;;6232445;22;20007;-77